Time;durP1;ratioP1;P1;durP2;ratioP2;P2;SDS_P1;SDS_P2;PMS_P1;PMS_P2;Temp;Humidity;BMP_temperature;BMP_pressure;BME280_temperature;BME280_humidity;BME280_pressure;Samples;Min_cycle;Max_cycle;Signal;HPM_P1;HPM_P2
2022/07/08 00:01:35;;;;;;;2.90;0.90;;;15.20;99.90;;;;;;5093898;28;20171;-66
2022/07/08 00:04:03;;;;;;;4.13;0.87;;;15.10;99.90;;;;;;5093956;28;20193;-65
2022/07/08 00:06:31;;;;;;;1.60;0.77;;;15.10;99.90;;;;;;5093917;28;20179;-66
2022/07/08 00:08:59;;;;;;;1.00;0.70;;;15.10;99.90;;;;;;5093844;28;20595;-67
2022/07/08 00:11:26;;;;;;;4.00;0.87;;;15.30;99.90;;;;;;5093851;28;20645;-66
2022/07/08 00:13:54;;;;;;;1.07;0.60;;;15.50;99.90;;;;;;5093990;28;20175;-65
2022/07/08 00:16:22;;;;;;;1.87;0.90;;;15.60;99.90;;;;;;5093787;28;20265;-66
2022/07/08 00:18:49;;;;;;;1.97;1.00;;;15.50;99.90;;;;;;5093617;28;20552;-66
2022/07/08 00:21:17;;;;;;;2.60;0.70;;;15.40;99.90;;;;;;5093649;28;20266;-66
2022/07/08 00:23:45;;;;;;;1.30;0.63;;;15.20;99.90;;;;;;5093661;28;20185;-66
2022/07/08 00:26:13;;;;;;;5.57;0.80;;;15.30;99.90;;;;;;5093286;28;20637;-66
2022/07/08 00:28:40;;;;;;;3.20;0.70;;;15.60;99.90;;;;;;5093655;28;20187;-66
2022/07/08 00:31:08;;;;;;;3.77;0.60;;;15.70;99.90;;;;;;5093371;28;20253;-66
2022/07/08 00:33:36;;;;;;;0.70;0.60;;;15.70;99.90;;;;;;5085244;28;20233;-65
2022/07/08 00:36:04;;;;;;;2.30;0.70;;;15.80;99.90;;;;;;5072610;28;20183;-65
2022/07/08 00:38:31;;;;;;;1.30;0.70;;;15.50;99.90;;;;;;5069773;28;20180;-66
2022/07/08 00:40:59;;;;;;;2.83;0.90;;;15.60;99.90;;;;;;5074182;28;20604;-65
2022/07/08 00:43:35;;;;;;;1.23;0.50;;;16.10;99.90;;;;;;5074442;28;20180;-66
2022/07/08 00:46:04;;;;;;;0.83;0.60;;;16.00;99.90;;;;;;5076295;28;20309;-66
2022/07/08 00:48:31;;;;;;;1.20;0.50;;;16.10;99.90;;;;;;5089187;28;20176;-66
2022/07/08 00:51:03;;;;;;;4.77;0.60;;;15.90;99.90;;;;;;5092584;28;20211;-66
2022/07/08 00:53:32;;;;;;;1.37;0.60;;;16.00;99.90;;;;;;5093297;28;20167;-65
2022/07/08 00:56:01;;;;;;;1.13;0.50;;;16.30;99.90;;;;;;5078608;28;20647;-66
2022/07/08 00:58:29;;;;;;;1.13;0.60;;;16.30;99.90;;;;;;5074078;28;20183;-65
2022/07/08 01:00:56;;;;;;;4.20;0.70;;;16.50;99.90;;;;;;5072985;28;20646;-66
2022/07/08 01:03:24;;;;;;;4.07;0.60;;;16.60;99.90;;;;;;5072432;28;20554;-66
2022/07/08 01:05:52;;;;;;;1.97;0.63;;;16.60;99.90;;;;;;5075517;28;20184;-65
2022/07/08 01:08:20;;;;;;;1.57;0.70;;;17.20;99.90;;;;;;5091683;28;20229;-66
2022/07/08 01:10:48;;;;;;;1.13;0.50;;;17.20;99.90;;;;;;5095173;28;20215;-66
2022/07/08 01:13:17;;;;;;;1.07;0.47;;;17.30;99.90;;;;;;5092990;28;20225;-64
2022/07/08 01:15:46;;;;;;;2.63;0.50;;;17.00;99.90;;;;;;5071197;28;20183;-65
2022/07/08 01:18:26;;;;;;;0.93;0.60;;;16.90;99.90;;;;;;5097341;28;20175;-65
2022/07/08 01:20:54;;;;;;;1.23;0.50;;;16.70;99.90;;;;;;5058347;28;20184;-66
2022/07/08 01:23:22;;;;;;;2.00;0.60;;;16.90;99.90;;;;;;5092727;28;20182;-66
2022/07/08 01:25:50;;;;;;;1.87;0.43;;;17.00;99.90;;;;;;5096880;28;20265;-64
2022/07/08 01:28:18;;;;;;;1.33;0.70;;;17.30;99.90;;;;;;5086177;28;20235;-65
2022/07/08 01:30:46;;;;;;;2.00;0.50;;;17.40;99.90;;;;;;5092267;28;20686;-65
2022/07/08 01:33:14;;;;;;;0.57;0.50;;;17.00;99.90;;;;;;5078595;28;20644;-64
2022/07/08 01:35:42;;;;;;;2.13;0.70;;;16.70;99.90;;;;;;5073743;28;20202;-66
2022/07/08 01:38:09;;;;;;;3.47;0.57;;;16.90;99.90;;;;;;5096380;28;20218;-66
2022/07/08 01:40:37;;;;;;;2.20;0.57;;;17.30;99.90;;;;;;5096212;28;20553;-66
2022/07/08 01:43:06;;;;;;;1.63;0.60;;;16.80;99.90;;;;;;5096593;28;20176;-66
2022/07/08 01:45:34;;;;;;;0.40;0.40;;;16.80;99.90;;;;;;5096784;28;20175;-66
2022/07/08 01:48:02;;;;;;;1.80;0.50;;;17.20;99.90;;;;;;5095859;28;20203;-66
2022/07/08 01:50:30;;;;;;;0.87;0.70;;;17.00;99.90;;;;;;5096206;28;20688;-66
2022/07/08 01:52:59;;;;;;;1.43;0.67;;;17.00;99.90;;;;;;5096116;28;20182;-67
2022/07/08 01:55:26;;;;;;;1.60;0.50;;;17.40;99.90;;;;;;5095564;28;20186;-66
2022/07/08 01:57:54;;;;;;;2.17;0.50;;;17.80;99.90;;;;;;5096154;28;20263;-66
2022/07/08 02:00:22;;;;;;;3.20;0.73;;;17.90;99.90;;;;;;5096259;28;20176;-67
2022/07/08 02:02:49;;;;;;;2.90;0.73;;;17.40;99.90;;;;;;5096353;28;20182;-66
2022/07/08 02:05:17;;;;;;;0.80;0.50;;;17.50;99.90;;;;;;5082768;28;20262;-66
2022/07/08 02:07:45;;;;;;;1.27;0.50;;;17.90;99.90;;;;;;5076004;28;20184;-66
2022/07/08 02:10:12;;;;;;;0.40;0.40;;;17.80;99.90;;;;;;5076023;28;20200;-67
2022/07/08 02:12:40;;;;;;;0.60;0.40;;;17.30;99.90;;;;;;5085843;28;20175;-65
2022/07/08 02:15:09;;;;;;;0.83;0.40;;;17.50;99.90;;;;;;5096188;28;20218;-67
2022/07/08 02:17:42;;;;;;;2.20;0.50;;;17.30;99.90;;;;;;5095944;28;20186;-67
2022/07/08 02:20:12;;;;;;;2.57;0.50;;;16.80;99.90;;;;;;5096022;28;20168;-67
2022/07/08 02:22:41;;;;;;;0.70;0.30;;;17.30;99.90;;;;;;5096191;28;20171;-67
2022/07/08 02:25:09;;;;;;;1.70;0.50;;;17.30;99.90;;;;;;5095599;28;20193;-67
2022/07/08 02:27:36;;;;;;;0.87;0.60;;;17.20;99.90;;;;;;5095755;28;20226;-67
2022/07/08 02:30:05;;;;;;;2.80;0.70;;;17.10;99.90;;;;;;5088208;28;20209;-67
2022/07/08 02:32:33;;;;;;;0.87;0.40;;;16.90;99.90;;;;;;5078814;28;20184;-67
2022/07/08 02:35:01;;;;;;;2.87;0.40;;;17.00;99.90;;;;;;5095639;28;20176;-67
2022/07/08 02:37:28;;;;;;;2.67;0.60;;;17.00;99.90;;;;;;5090114;28;20229;-66
2022/07/08 02:39:56;;;;;;;0.83;0.40;;;16.60;99.90;;;;;;5079386;28;20175;-67
2022/07/08 02:42:24;;;;;;;0.83;0.40;;;16.60;99.90;;;;;;5079633;28;20181;-65
2022/07/08 02:44:52;;;;;;;0.30;0.30;;;16.60;99.90;;;;;;5095622;28;20621;-66
2022/07/08 02:47:19;;;;;;;0.40;0.40;;;17.10;99.90;;;;;;5092020;28;20175;-65
2022/07/08 02:49:47;;;;;;;1.17;0.40;;;17.70;99.90;;;;;;5088002;28;20294;-67
2022/07/08 02:52:15;;;;;;;0.33;0.33;;;17.40;99.90;;;;;;5095233;28;20277;-66
2022/07/08 02:54:42;;;;;;;0.47;0.30;;;17.30;99.90;;;;;;5094416;28;20183;-68
2022/07/08 02:57:10;;;;;;;1.80;0.37;;;17.30;99.90;;;;;;5091636;28;20187;-66
2022/07/08 02:59:38;;;;;;;0.30;0.30;;;17.30;99.90;;;;;;5092132;28;20213;-65
2022/07/08 03:02:05;;;;;;;0.43;0.30;;;17.10;99.90;;;;;;5074674;28;20245;-65
2022/07/08 03:04:33;;;;;;;0.70;0.40;;;17.30;99.90;;;;;;5074873;28;20705;-65
2022/07/08 03:07:01;;;;;;;1.40;0.47;;;17.80;99.90;;;;;;5074647;28;20258;-65
2022/07/08 03:09:29;;;;;;;0.77;0.40;;;18.20;99.90;;;;;;5088085;28;20217;-66
2022/07/08 03:11:57;;;;;;;0.20;0.20;;;18.70;99.90;;;;;;5090347;28;20187;-66
2022/07/08 03:14:24;;;;;;;0.73;0.33;;;18.00;99.90;;;;;;5094416;28;20175;-66
2022/07/08 03:16:52;;;;;;;0.30;0.30;;;17.50;99.90;;;;;;5093090;28;20183;-66
2022/07/08 03:19:21;;;;;;;0.40;0.40;;;17.30;99.90;;;;;;5092519;28;20206;-68
2022/07/08 03:21:48;;;;;;;0.70;0.30;;;17.40;99.90;;;;;;5095074;28;20240;-68
2022/07/08 03:24:16;;;;;;;0.47;0.40;;;17.30;99.90;;;;;;5076705;28;20193;-68
2022/07/08 03:26:44;;;;;;;0.53;0.40;;;17.50;99.90;;;;;;5095286;28;20303;-66
2022/07/08 03:29:11;;;;;;;1.30;0.40;;;17.10;99.90;;;;;;5076613;28;20191;-67
2022/07/08 03:31:39;;;;;;;0.63;0.30;;;17.60;99.90;;;;;;5094265;28;20179;-67
2022/07/08 03:34:07;;;;;;;0.77;0.40;;;17.40;99.90;;;;;;5094533;28;20211;-67
2022/07/08 03:36:35;;;;;;;0.40;0.40;;;17.60;99.90;;;;;;5094266;28;20186;-67
2022/07/08 03:39:06;;;;;;;0.50;0.30;;;17.70;99.90;;;;;;5094700;28;20215;-68
2022/07/08 03:41:34;;;;;;;0.40;0.40;;;17.50;99.90;;;;;;5094562;28;20230;-67
2022/07/08 03:44:02;;;;;;;1.43;0.50;;;17.40;99.90;;;;;;5076455;28;20551;-66
2022/07/08 03:46:30;;;;;;;0.30;0.30;;;17.20;99.90;;;;;;5094410;28;20548;-67
2022/07/08 03:48:58;;;;;;;2.40;0.33;;;17.20;99.90;;;;;;5094720;28;20184;-68
2022/07/08 03:51:26;;;;;;;0.30;0.30;;;16.90;99.90;;;;;;5094503;28;20533;-67
2022/07/08 03:53:53;;;;;;;0.30;0.30;;;17.20;99.90;;;;;;5094451;28;20643;-68
2022/07/08 03:56:21;;;;;;;0.30;0.30;;;17.00;99.90;;;;;;5076014;28;20179;-67
2022/07/08 03:58:50;;;;;;;0.50;0.40;;;16.90;99.90;;;;;;5094397;28;20635;-68
2022/07/08 04:01:18;;;;;;;0.30;0.30;;;17.10;99.90;;;;;;5094105;28;20613;-68
2022/07/08 04:03:46;;;;;;;2.33;0.53;;;17.30;99.90;;;;;;5076110;28;20183;-68
2022/07/08 04:06:16;;;;;;;0.40;0.40;;;17.30;99.90;;;;;;5093933;28;20708;-66
2022/07/08 04:08:44;;;;;;;3.73;0.97;;;16.90;99.90;;;;;;5094372;28;20682;-67
2022/07/08 04:11:12;;;;;;;0.60;0.50;;;17.00;99.90;;;;;;5058431;28;20283;-67
2022/07/08 04:13:41;;;;;;;0.50;0.40;;;16.90;99.90;;;;;;5094434;28;20175;-67
2022/07/08 04:16:13;;;;;;;0.83;0.40;;;17.20;99.90;;;;;;5076342;28;20262;-67
2022/07/08 04:18:41;;;;;;;0.40;0.40;;;17.40;99.90;;;;;;5093812;28;20190;-68
2022/07/08 04:21:11;;;;;;;0.30;0.30;;;17.60;99.90;;;;;;5093843;28;20181;-68
2022/07/08 04:23:40;;;;;;;2.53;0.50;;;17.60;99.90;;;;;;5094085;28;20203;-68
2022/07/08 04:26:10;;;;;;;0.70;0.43;;;17.00;99.90;;;;;;5093740;28;20202;-68
2022/07/08 04:28:42;;;;;;;0.30;0.30;;;16.90;99.90;;;;;;5093837;28;20640;-68
2022/07/08 04:31:10;;;;;;;1.50;0.30;;;16.80;99.90;;;;;;5093998;28;20569;-68
2022/07/08 04:33:38;;;;;;;0.40;0.40;;;17.00;99.90;;;;;;5094205;28;20173;-67
2022/07/08 04:36:07;;;;;;;0.50;0.33;;;17.00;99.90;;;;;;5094423;28;20171;-68
2022/07/08 04:38:34;;;;;;;0.70;0.50;;;17.20;99.90;;;;;;5097973;28;20163;-66
2022/07/08 04:41:06;;;;;;;0.70;0.50;;;17.60;99.90;;;;;;5099026;28;20641;-68
2022/07/08 04:43:34;;;;;;;0.73;0.50;;;17.80;99.90;;;;;;5097355;28;20185;-68
2022/07/08 04:46:02;;;;;;;0.30;0.30;;;17.80;99.90;;;;;;5093514;28;20234;-67
2022/07/08 04:48:29;;;;;;;1.03;0.60;;;17.30;99.90;;;;;;5093591;28;20570;-67
2022/07/08 04:50:58;;;;;;;3.30;0.60;;;16.90;99.90;;;;;;5091933;28;20731;-67
2022/07/08 04:53:25;;;;;;;2.50;0.50;;;16.90;99.90;;;;;;5093693;28;20696;-67
2022/07/08 04:55:53;;;;;;;1.13;0.63;;;16.70;99.90;;;;;;5093983;28;20687;-67
2022/07/08 04:58:21;;;;;;;1.07;0.50;;;17.00;99.90;;;;;;5093276;28;20181;-67
2022/07/08 05:00:49;;;;;;;1.57;0.57;;;16.80;99.90;;;;;;5093258;28;20183;-67
2022/07/08 05:03:16;;;;;;;0.87;0.40;;;16.70;99.90;;;;;;5093506;28;20270;-68
2022/07/08 05:05:48;;;;;;;2.43;0.63;;;16.30;99.90;;;;;;5093501;28;20258;-67
2022/07/08 05:08:15;;;;;;;2.00;0.40;;;16.20;99.90;;;;;;5093421;28;20179;-67
2022/07/08 05:10:48;;;;;;;1.13;0.57;;;16.40;99.90;;;;;;5093199;28;20221;-67
2022/07/08 05:13:16;;;;;;;0.67;0.40;;;16.80;99.90;;;;;;5093187;28;20215;-68
2022/07/08 05:15:44;;;;;;;0.50;0.47;;;16.40;99.90;;;;;;5093180;28;20708;-66
2022/07/08 05:18:11;;;;;;;0.77;0.50;;;16.30;99.90;;;;;;5093191;28;20175;-68
2022/07/08 05:20:39;;;;;;;1.23;0.57;;;16.30;99.90;;;;;;5093347;28;20576;-68
2022/07/08 05:23:08;;;;;;;0.67;0.50;;;16.40;99.90;;;;;;5093267;28;20555;-68
2022/07/08 05:25:36;;;;;;;0.50;0.50;;;16.20;99.90;;;;;;5093284;28;20175;-67
2022/07/08 05:28:03;;;;;;;1.03;0.50;;;16.10;99.90;;;;;;5074044;28;20707;-67
2022/07/08 05:30:31;;;;;;;0.97;0.60;;;15.70;99.90;;;;;;5093010;28;20219;-66
2022/07/08 05:32:59;;;;;;;0.47;0.47;;;15.50;99.90;;;;;;5093250;28;20179;-67
2022/07/08 05:35:27;;;;;;;0.80;0.57;;;15.10;99.90;;;;;;5092934;28;20677;-67
2022/07/08 05:37:55;;;;;;;1.17;0.77;;;14.90;99.90;;;;;;5093056;28;20179;-67
2022/07/08 05:40:22;;;;;;;0.60;0.60;;;14.90;99.90;;;;;;5092962;28;20179;-67
2022/07/08 05:42:50;;;;;;;1.07;0.60;;;14.70;99.90;;;;;;5093010;28;20291;-67
2022/07/08 05:45:18;;;;;;;0.50;0.50;;;14.60;99.90;;;;;;5093061;28;20625;-67
2022/07/08 05:47:45;;;;;;;2.27;0.60;;;14.50;99.90;;;;;;5074677;28;20237;-67
2022/07/08 05:50:13;;;;;;;1.60;0.57;;;14.50;99.90;;;;;;5092841;28;20214;-68
2022/07/08 05:52:41;;;;;;;5.73;0.70;;;14.30;99.90;;;;;;5092880;28;20271;-68
2022/07/08 05:55:09;;;;;;;1.13;0.60;;;14.20;99.90;;;;;;5093618;28;20179;-66
2022/07/08 05:57:37;;;;;;;0.80;0.70;;;14.20;99.90;;;;;;5096623;28;20269;-67
2022/07/08 06:00:07;;;;;;;0.90;0.50;;;14.00;99.90;;;;;;5096567;28;20584;-67
2022/07/08 06:02:34;;;;;;;0.87;0.73;;;14.00;99.90;;;;;;5096860;28;20174;-67
2022/07/08 06:05:02;;;;;;;1.70;0.60;;;13.90;99.90;;;;;;5096575;28;20262;-67
2022/07/08 06:07:32;;;;;;;1.93;0.60;;;13.80;99.90;;;;;;5096646;28;20175;-67
2022/07/08 06:10:01;;;;;;;1.50;0.70;;;13.80;99.90;;;;;;5078090;28;20695;-66
2022/07/08 06:12:28;;;;;;;1.63;0.60;;;13.70;99.90;;;;;;5087342;28;20195;-66
2022/07/08 06:14:56;;;;;;;0.97;0.70;;;13.70;99.90;;;;;;5073435;28;20286;-67
2022/07/08 06:17:24;;;;;;;1.70;0.70;;;13.60;99.90;;;;;;5096069;28;20179;-67
2022/07/08 06:19:52;;;;;;;0.70;0.70;;;13.60;99.90;;;;;;5095930;28;20271;-66
2022/07/08 06:22:19;;;;;;;1.90;0.70;;;13.50;99.90;;;;;;5096107;28;20224;-67
2022/07/08 06:24:47;;;;;;;1.43;0.60;;;13.40;99.90;;;;;;5095888;28;20178;-68
2022/07/08 06:27:18;;;;;;;2.43;0.70;;;13.30;99.90;;;;;;5095722;28;20229;-67
2022/07/08 06:29:48;;;;;;;0.83;0.60;;;13.30;99.90;;;;;;5077883;28;20705;-67
2022/07/08 06:32:15;;;;;;;0.83;0.70;;;13.20;99.90;;;;;;5094918;28;20656;-66
2022/07/08 06:34:46;;;;;;;0.50;0.50;;;13.20;99.90;;;;;;5096182;28;20181;-66
2022/07/08 06:37:14;;;;;;;1.90;0.73;;;13.20;99.90;;;;;;5096025;28;20177;-65
2022/07/08 06:39:42;;;;;;;1.17;0.70;;;13.10;99.90;;;;;;5095905;28;20223;-67
2022/07/08 06:42:09;;;;;;;3.60;0.70;;;13.10;99.90;;;;;;5095538;28;20195;-66
2022/07/08 06:44:37;;;;;;;1.13;0.60;;;13.00;99.90;;;;;;5094066;28;20203;-65
2022/07/08 06:47:05;;;;;;;2.27;0.70;;;12.90;99.90;;;;;;5095023;28;20193;-65
2022/07/08 06:49:33;;;;;;;3.60;1.00;;;12.80;99.90;;;;;;5095273;28;20550;-66
2022/07/08 06:52:00;;;;;;;2.10;0.80;;;12.70;99.90;;;;;;5095495;28;20178;-66
2022/07/08 06:54:37;;;;;;;1.73;1.10;;;12.60;99.90;;;;;;5095609;28;20647;-67
2022/07/08 06:57:10;;;;;;;3.20;1.80;;;12.60;99.90;;;;;;5076966;28;20185;-66
2022/07/08 06:59:38;;;;;;;3.97;2.03;;;12.50;99.90;;;;;;5095488;28;20634;-67
2022/07/08 07:02:06;;;;;;;3.23;0.80;;;12.40;99.90;;;;;;5095139;28;20173;-67
2022/07/08 07:04:34;;;;;;;1.57;0.77;;;12.40;99.90;;;;;;5095426;28;20185;-67
2022/07/08 07:07:01;;;;;;;1.93;1.10;;;12.40;99.90;;;;;;5093885;28;20270;-67
2022/07/08 07:09:29;;;;;;;1.80;1.40;;;12.30;99.90;;;;;;5087555;28;20188;-66
2022/07/08 07:11:57;;;;;;;3.00;1.60;;;12.30;99.90;;;;;;5074724;28;20667;-67
2022/07/08 07:14:25;;;;;;;2.43;1.40;;;12.20;99.90;;;;;;5074387;28;20696;-65
2022/07/08 07:16:55;;;;;;;1.17;0.93;;;12.10;99.90;;;;;;5058715;28;20192;-66
2022/07/08 07:19:22;;;;;;;2.80;0.90;;;12.00;99.90;;;;;;5074306;28;20169;-65
2022/07/08 07:21:50;;;;;;;2.87;1.30;;;12.00;99.90;;;;;;5074199;28;20186;-65
2022/07/08 07:24:18;;;;;;;0.70;0.70;;;12.10;99.90;;;;;;5074807;28;20184;-66
2022/07/08 07:26:46;;;;;;;1.73;0.67;;;12.00;99.90;;;;;;5076646;28;20293;-65
2022/07/08 07:29:13;;;;;;;1.60;1.10;;;12.00;99.90;;;;;;5060555;28;20188;-66
2022/07/08 07:31:43;;;;;;;2.37;0.90;;;11.90;99.90;;;;;;5074144;28;20182;-64
2022/07/08 07:34:10;;;;;;;1.13;0.80;;;11.90;99.90;;;;;;5073912;28;20178;-66
2022/07/08 07:36:42;;;;;;;1.10;0.90;;;11.90;99.90;;;;;;5077741;28;20176;-66
2022/07/08 07:39:11;;;;;;;0.97;0.70;;;11.90;99.90;;;;;;5073829;28;20179;-65
2022/07/08 07:41:39;;;;;;;1.00;0.93;;;11.90;99.90;;;;;;5072154;28;20172;-64
2022/07/08 07:44:07;;;;;;;1.10;1.00;;;11.90;99.90;;;;;;5075440;28;20180;-64
2022/07/08 07:46:35;;;;;;;1.77;0.90;;;11.80;99.90;;;;;;5076700;28;20220;-63
2022/07/08 07:49:07;;;;;;;1.10;0.77;;;11.80;99.90;;;;;;5073950;28;20185;-65
2022/07/08 07:51:36;;;;;;;4.90;1.30;;;11.80;99.90;;;;;;5073680;28;20654;-63
2022/07/08 07:54:06;;;;;;;2.73;1.20;;;11.70;99.90;;;;;;5054701;28;20192;-67
2022/07/08 07:56:34;;;;;;;3.00;1.13;;;11.60;99.90;;;;;;5073169;28;20207;-65
2022/07/08 07:59:05;;;;;;;2.43;1.30;;;11.50;99.90;;;;;;5073013;28;20184;-68
2022/07/08 08:01:33;;;;;;;1.97;1.50;;;11.60;99.90;;;;;;5039308;28;20188;-66
2022/07/08 08:04:01;;;;;;;1.10;0.93;;;11.60;99.90;;;;;;5054461;28;20657;-64
2022/07/08 08:06:29;;;;;;;1.83;1.30;;;11.60;99.90;;;;;;5054321;28;20248;-64
2022/07/08 08:08:57;;;;;;;2.63;1.20;;;11.60;99.90;;;;;;5068693;28;20200;-64
2022/07/08 08:11:25;;;;;;;3.87;1.27;;;11.70;99.90;;;;;;5087303;28;20226;-66
2022/07/08 08:13:53;;;;;;;3.13;1.73;;;11.70;99.90;;;;;;5092937;28;20515;-64
2022/07/08 08:16:23;;;;;;;3.43;1.20;;;11.60;99.90;;;;;;5092524;28;20645;-65
2022/07/08 08:18:51;;;;;;;3.27;1.40;;;11.80;99.90;;;;;;5092705;28;20215;-65
2022/07/08 08:21:19;;;;;;;3.33;1.07;;;11.80;99.90;;;;;;5092815;28;20180;-65
2022/07/08 08:23:47;;;;;;;0.90;0.80;;;11.70;99.90;;;;;;5068204;28;20185;-65
2022/07/08 08:26:16;;;;;;;2.07;1.00;;;11.60;99.90;;;;;;5071685;28;20172;-66
2022/07/08 08:28:44;;;;;;;2.60;1.43;;;11.60;99.90;;;;;;5054113;28;20199;-64
2022/07/08 08:31:13;;;;;;;1.30;0.93;;;11.50;99.90;;;;;;5072772;28;20275;-64
2022/07/08 08:33:45;;;;;;;2.63;1.07;;;11.40;99.90;;;;;;5073011;28;20203;-64
2022/07/08 08:36:14;;;;;;;2.30;1.40;;;11.40;99.90;;;;;;5064704;28;20183;-68
2022/07/08 08:38:41;;;;;;;3.53;1.20;;;11.30;99.90;;;;;;5082583;28;20182;-68
2022/07/08 08:41:13;;;;;;;1.80;0.93;;;11.30;99.90;;;;;;5059231;28;20171;-65
2022/07/08 08:43:42;;;;;;;3.97;1.07;;;11.20;99.90;;;;;;5072052;28;20192;-67
2022/07/08 08:46:14;;;;;;;2.30;1.20;;;11.20;99.90;;;;;;5054215;28;20185;-65
2022/07/08 08:48:46;;;;;;;1.53;1.00;;;11.20;99.90;;;;;;5069618;28;20176;-63
2022/07/08 08:51:20;;;;;;;1.80;1.20;;;11.10;99.90;;;;;;5071504;28;20298;-63
2022/07/08 08:53:52;;;;;;;1.23;1.10;;;11.10;99.90;;;;;;5053949;28;20564;-64
2022/07/08 08:56:20;;;;;;;2.80;1.40;;;11.00;99.90;;;;;;5072623;28;20259;-63
2022/07/08 08:58:53;;;;;;;3.83;1.40;;;10.90;99.90;;;;;;5073734;28;20183;-66
2022/07/08 09:01:24;;;;;;;5.30;1.83;;;10.80;99.90;;;;;;5077602;28;20221;-67
2022/07/08 09:03:51;;;;;;;3.17;1.50;;;10.60;99.90;;;;;;5075009;28;20180;-67
2022/07/08 09:06:19;;;;;;;2.20;1.13;;;10.40;99.90;;;;;;5089322;28;20176;-67
2022/07/08 09:08:48;;;;;;;3.50;1.20;;;10.50;99.90;;;;;;5073561;28;20271;-67
2022/07/08 09:11:17;;;;;;;2.53;1.20;;;10.60;99.90;;;;;;5073204;28;20292;-68
2022/07/08 09:14:05;;;;;;;2.37;1.70;;;10.50;99.90;;;;;;5092095;28;20252;-67
2022/07/08 09:16:33;;;;;;;2.07;1.37;;;10.20;99.90;;;;;;5091909;28;20216;-67
2022/07/08 09:19:14;;;;;;;2.93;1.23;;;10.10;99.90;;;;;;5092023;28;20633;-66
2022/07/08 09:21:52;;;;;;;2.20;1.00;;;10.10;99.90;;;;;;5091983;28;20666;-68
2022/07/08 09:24:21;;;;;;;2.27;1.10;;;10.30;99.90;;;;;;5092010;28;20186;-67
2022/07/08 09:26:48;;;;;;;1.30;1.20;;;10.50;99.90;;;;;;5073510;28;20715;-67
2022/07/08 09:29:16;;;;;;;2.63;0.90;;;10.80;99.90;;;;;;5091851;28;20168;-67
2022/07/08 09:31:44;;;;;;;1.37;0.90;;;11.00;99.90;;;;;;5095356;28;20211;-67
2022/07/08 09:34:16;;;;;;;3.13;0.90;;;11.00;99.90;;;;;;5096041;28;20254;-67
2022/07/08 09:36:48;;;;;;;2.87;0.90;;;11.00;99.90;;;;;;5095935;28;20186;-67
2022/07/08 09:39:28;;;;;;;1.33;0.90;;;10.90;99.90;;;;;;5095844;28;20175;-67
2022/07/08 09:41:55;;;;;;;3.03;1.10;;;10.90;99.90;;;;;;5094516;28;20176;-67
2022/07/08 09:44:23;;;;;;;1.97;0.97;;;11.00;99.90;;;;;;5095303;28;20267;-67
2022/07/08 09:46:51;;;;;;;3.40;1.10;;;10.90;99.90;;;;;;5095287;28;20194;-66
2022/07/08 09:49:33;;;;;;;3.77;1.20;;;10.70;99.90;;;;;;5095537;28;20202;-67
2022/07/08 09:52:01;;;;;;;1.10;1.00;;;10.60;99.90;;;;;;5091272;28;20196;-65
2022/07/08 09:54:30;;;;;;;1.07;0.90;;;10.40;99.90;;;;;;5081253;28;20176;-65
2022/07/08 09:56:58;;;;;;;1.20;1.10;;;10.20;99.90;;;;;;5081159;28;20658;-64
2022/07/08 09:59:26;;;;;;;1.77;1.40;;;10.00;99.90;;;;;;5057399;28;20188;-64
2022/07/08 10:01:54;;;;;;;2.60;1.97;;;9.80;99.90;;;;;;5076000;28;20219;-65
2022/07/08 10:04:25;;;;;;;3.27;2.10;;;9.70;99.90;;;;;;5090914;28;20194;-67
2022/07/08 10:06:54;;;;;;;4.23;2.03;;;9.70;99.90;;;;;;5095142;28;20172;-63
2022/07/08 10:09:23;;;;;;;2.90;2.00;;;9.50;99.90;;;;;;5089229;28;20234;-66
2022/07/08 10:11:53;;;;;;;4.17;2.07;;;9.40;99.90;;;;;;5057758;28;20635;-64
2022/07/08 10:14:21;;;;;;;3.73;2.00;;;9.30;99.90;;;;;;5094977;28;20208;-66
2022/07/08 10:16:49;;;;;;;3.07;1.87;;;9.20;99.90;;;;;;5097016;28;20674;-64
2022/07/08 10:19:32;;;;;;;2.83;2.23;;;9.10;99.90;;;;;;5116342;28;20242;-65
2022/07/08 10:22:01;;;;;;;5.13;2.30;;;9.10;99.90;;;;;;5087397;28;20202;-67
2022/07/08 10:24:38;;;;;;;3.20;1.87;;;9.00;99.90;;;;;;5094701;28;20562;-67
2022/07/08 10:27:06;;;;;;;17.03;11.67;;;8.90;99.90;;;;;;5094381;28;20304;-66
2022/07/08 10:29:39;;;;;;;5.40;3.97;;;8.80;99.90;;;;;;5094682;28;20175;-67
2022/07/08 10:32:26;;;;;;;5.03;3.37;;;8.80;99.90;;;;;;5094669;28;20209;-65
2022/07/08 10:35:22;;;;;;;9.53;6.03;;;8.80;99.90;;;;;;5076936;28;20278;-68
2022/07/08 10:37:57;;;;;;;4.00;2.70;;;8.80;99.90;;;;;;5090541;28;20202;-66
2022/07/08 10:40:49;;;;;;;4.53;2.87;;;8.60;99.90;;;;;;5094240;28;20196;-66
2022/07/08 10:43:19;;;;;;;2.47;2.20;;;8.60;99.90;;;;;;5093256;28;20248;-64
2022/07/08 10:46:02;;;;;;;2.80;2.03;;;8.50;99.90;;;;;;5093767;28;20546;-64
2022/07/08 10:48:41;;;;;;;3.20;2.20;;;8.40;99.90;;;;;;5094450;28;20187;-65
2022/07/08 10:51:29;;;;;;;3.50;2.23;;;8.40;99.90;;;;;;5093948;28;20210;-65
2022/07/08 10:53:58;;;;;;;7.23;2.77;;;8.20;99.90;;;;;;5077685;28;20664;-66
2022/07/08 10:56:54;;;;;;;4.33;2.57;;;8.10;99.90;;;;;;5093966;28;20659;-66
2022/07/08 10:59:26;;;;;;;4.90;2.30;;;8.00;99.90;;;;;;5094391;28;20222;-64
2022/07/08 11:02:03;;;;;;;4.53;2.00;;;7.90;99.90;;;;;;5094197;28;20183;-65
2022/07/08 11:04:35;;;;;;;3.57;1.90;;;7.80;99.90;;;;;;5093554;28;20191;-65
2022/07/08 11:10:11;;;;;;;3.10;1.90;;;7.60;99.90;;;;;;5094310;28;20248;-65
2022/07/08 11:12:45;;;;;;;3.00;2.13;;;7.50;99.90;;;;;;5059237;28;20326;-65
2022/07/08 11:15:16;;;;;;;2.40;2.03;;;7.40;99.90;;;;;;5093290;28;20294;-66
2022/07/08 11:17:46;;;;;;;4.03;2.20;;;7.40;99.90;;;;;;5093819;28;20198;-65
2022/07/08 11:20:16;;;;;;;3.30;2.50;;;7.30;99.90;;;;;;5093522;28;20178;-65
2022/07/08 11:22:44;;;;;;;5.77;2.33;;;7.20;99.90;;;;;;5093612;28;20640;-65
2022/07/08 11:25:14;;;;;;;4.17;2.37;;;7.10;99.90;;;;;;5093811;28;20174;-65
2022/07/08 11:27:43;;;;;;;5.67;2.10;;;7.20;99.90;;;;;;5093505;28;20261;-65
2022/07/08 11:30:15;;;;;;;3.00;2.43;;;7.10;99.90;;;;;;5092741;28;20218;-65
2022/07/08 11:32:47;;;;;;;4.30;2.50;;;7.00;99.90;;;;;;5093435;28;20228;-66
2022/07/08 11:35:17;;;;;;;4.10;2.47;;;7.00;99.90;;;;;;5089287;28;20186;-64
2022/07/08 11:37:45;;;;;;;4.33;2.10;;;7.00;99.90;;;;;;5078383;28;20262;-66
2022/07/08 11:40:18;;;;;;;3.53;2.30;;;6.90;99.90;;;;;;5093056;28;20175;-65
2022/07/08 11:42:45;;;;;;;5.23;2.57;;;7.00;99.90;;;;;;5091108;28;20186;-66
2022/07/08 11:45:13;;;;;;;2.60;2.20;;;7.00;99.90;;;;;;5105292;28;20187;-66
2022/07/08 11:47:40;;;;;;;7.07;5.30;;;7.10;99.90;;;;;;5080620;28;20184;-66
2022/07/08 11:50:11;;;;;;;9.97;6.07;;;7.10;99.90;;;;;;5082010;28;20766;-65
2022/07/08 11:52:39;;;;;;;4.63;3.23;;;7.00;99.90;;;;;;5086449;28;20285;-66
2022/07/08 11:55:09;;;;;;;5.37;3.20;;;7.00;99.90;;;;;;5086464;28;20189;-67
2022/07/08 11:57:44;;;;;;;6.00;3.17;;;6.90;99.90;;;;;;5074881;28;20671;-66
2022/07/08 12:00:12;;;;;;;9.00;4.90;;;6.80;99.90;;;;;;5075122;28;20278;-66
2022/07/08 12:02:40;;;;;;;8.13;4.30;;;6.80;99.90;;;;;;5092849;28;20190;-66
2022/07/08 12:05:10;;;;;;;6.40;3.43;;;6.70;99.90;;;;;;5091901;28;20222;-65
2022/07/08 12:07:40;;;;;;;7.07;4.17;;;6.70;99.90;;;;;;5059068;28;20322;-66
2022/07/08 12:10:11;;;;;;;7.67;3.10;;;6.70;99.90;;;;;;5092226;28;20252;-65
2022/07/08 12:12:39;;;;;;;5.83;3.50;;;6.70;99.90;;;;;;5072936;28;20194;-66
2022/07/08 12:15:14;;;;;;;5.57;3.90;;;6.60;99.90;;;;;;5092708;28;20186;-66
2022/07/08 12:17:42;;;;;;;17.40;9.00;;;6.50;99.90;;;;;;5092802;28;20201;-66
2022/07/08 12:20:11;;;;;;;9.90;6.27;;;6.50;99.90;;;;;;5092538;28;20224;-64
2022/07/08 12:22:53;;;;;;;8.43;5.03;;;6.40;99.90;;;;;;5092173;28;20193;-66
2022/07/08 12:25:20;;;;;;;5.23;3.43;;;6.40;99.90;;;;;;5092764;28;20190;-64
2022/07/08 12:28:04;;;;;;;6.43;2.90;;;6.40;99.90;;;;;;5092635;28;20690;-65
2022/07/08 12:30:32;;;;;;;6.07;3.50;;;6.40;99.90;;;;;;5073981;28;20218;-65
2022/07/08 12:33:04;;;;;;;5.93;3.37;;;6.30;99.90;;;;;;5074255;28;20225;-65
2022/07/08 12:35:36;;;;;;;7.17;3.60;;;6.30;99.90;;;;;;5091820;28;20233;-65
2022/07/08 12:38:10;;;;;;;6.77;3.43;;;6.30;99.90;;;;;;5074385;28;20190;-65
2022/07/08 12:40:42;;;;;;;9.20;4.23;;;6.30;99.90;;;;;;5092311;28;20181;-64
2022/07/08 12:43:13;;;;;;;5.17;3.37;;;6.30;99.90;;;;;;5092063;28;20313;-64
2022/07/08 12:45:40;;;;;;;6.80;4.00;;;6.30;99.90;;;;;;5074256;28;20208;-64
2022/07/08 12:48:08;;;;;;;7.23;3.53;;;6.30;99.90;;;;;;5092328;28;20284;-67
2022/07/08 12:50:36;;;;;;;8.53;4.03;;;6.30;99.90;;;;;;5091974;28;20213;-67
2022/07/08 12:53:04;;;;;;;6.27;4.07;;;6.30;99.90;;;;;;5092035;28;20190;-64
2022/07/08 12:55:34;;;;;;;7.47;4.30;;;6.20;99.90;;;;;;5092160;28;20189;-65
2022/07/08 12:58:02;;;;;;;6.43;4.80;;;6.20;99.90;;;;;;5073879;28;20202;-66
2022/07/08 13:00:32;;;;;;;6.00;4.57;;;6.20;99.90;;;;;;5073370;28;20557;-66
2022/07/08 13:03:00;;;;;;;8.47;5.20;;;6.20;99.90;;;;;;5091803;28;20663;-64